sensor_id;sensor_type;location;lat;lon;timestamp;temperature;humidity
22299;DHT22;11317;51.072;17.036;2022-10-16T00:01:26;11.90;99.90
22299;DHT22;11317;51.072;17.036;2022-10-16T00:03:52;11.90;99.90
22299;DHT22;11317;51.072;17.036;2022-10-16T00:06:19;12.00;99.90
22299;DHT22;11317;51.072;17.036;2022-10-16T00:08:45;12.00;99.90
22299;DHT22;11317;51.072;17.036;2022-10-16T00:11:12;12.00;99.90
22299;DHT22;11317;51.072;17.036;2022-10-16T00:13:40;12.50;99.90
22299;DHT22;11317;51.072;17.036;2022-10-16T00:16:06;12.20;99.90
22299;DHT22;11317;51.072;17.036;2022-10-16T00:18:32;12.50;99.90
22299;DHT22;11317;51.072;17.036;2022-10-16T00:21:22;12.20;99.90
22299;DHT22;11317;51.072;17.036;2022-10-16T00:23:53;12.20;99.90
22299;DHT22;11317;51.072;17.036;2022-10-16T00:28:49;12.10;99.90
22299;DHT22;11317;51.072;17.036;2022-10-16T00:31:17;12.50;99.90
22299;DHT22;11317;51.072;17.036;2022-10-16T00:36:12;12.20;99.90
22299;DHT22;11317;51.072;17.036;2022-10-16T00:38:38;12.20;99.90
22299;DHT22;11317;51.072;17.036;2022-10-16T00:41:05;13.00;99.90
22299;DHT22;11317;51.072;17.036;2022-10-16T00:43:47;13.10;99.90
22299;DHT22;11317;51.072;17.036;2022-10-16T00:46:19;12.90;99.90
22299;DHT22;11317;51.072;17.036;2022-10-16T00:48:50;12.50;99.90
22299;DHT22;11317;51.072;17.036;2022-10-16T00:51:20;12.50;99.90
22299;DHT22;11317;51.072;17.036;2022-10-16T00:53:46;12.50;99.90
22299;DHT22;11317;51.072;17.036;2022-10-16T00:58:39;12.50;99.90
22299;DHT22;11317;51.072;17.036;2022-10-16T01:03:33;12.20;99.90
22299;DHT22;11317;51.072;17.036;2022-10-16T01:08:33;12.40;99.90
22299;DHT22;11317;51.072;17.036;2022-10-16T01:11:16;12.80;99.90
22299;DHT22;11317;51.072;17.036;2022-10-16T01:13:45;12.40;99.90
22299;DHT22;11317;51.072;17.036;2022-10-16T01:19:05;12.70;99.90
22299;DHT22;11317;51.072;17.036;2022-10-16T01:21:42;12.50;99.90
22299;DHT22;11317;51.072;17.036;2022-10-16T01:24:34;12.50;99.90
22299;DHT22;11317;51.072;17.036;2022-10-16T01:27:13;12.60;99.90
22299;DHT22;11317;51.072;17.036;2022-10-16T01:29:53;12.60;99.90
22299;DHT22;11317;51.072;17.036;2022-10-16T01:32:35;12.70;99.90
22299;DHT22;11317;51.072;17.036;2022-10-16T01:35:13;12.40;99.90
22299;DHT22;11317;51.072;17.036;2022-10-16T01:37:47;12.70;99.90
22299;DHT22;11317;51.072;17.036;2022-10-16T01:40:16;12.00;99.90
22299;DHT22;11317;51.072;17.036;2022-10-16T01:42:50;12.50;99.90
22299;DHT22;11317;51.072;17.036;2022-10-16T01:45:19;12.40;99.90
22299;DHT22;11317;51.072;17.036;2022-10-16T01:47:46;12.40;99.90
22299;DHT22;11317;51.072;17.036;2022-10-16T01:50:15;12.60;99.90
22299;DHT22;11317;51.072;17.036;2022-10-16T01:52:45;12.50;99.90
22299;DHT22;11317;51.072;17.036;2022-10-16T01:55:16;12.20;99.90
22299;DHT22;11317;51.072;17.036;2022-10-16T01:57:46;12.00;99.90
22299;DHT22;11317;51.072;17.036;2022-10-16T02:00:16;12.30;99.90
22299;DHT22;11317;51.072;17.036;2022-10-16T02:02:45;12.00;99.90
22299;DHT22;11317;51.072;17.036;2022-10-16T02:05:24;13.30;99.90
22299;DHT22;11317;51.072;17.036;2022-10-16T02:10:17;11.90;99.90
22299;DHT22;11317;51.072;17.036;2022-10-16T02:12:50;12.30;99.90
22299;DHT22;11317;51.072;17.036;2022-10-16T02:15:18;12.20;99.90
22299;DHT22;11317;51.072;17.036;2022-10-16T02:22:40;12.40;99.90
22299;DHT22;11317;51.072;17.036;2022-10-16T02:25:13;12.00;99.90
22299;DHT22;11317;51.072;17.036;2022-10-16T02:28:06;12.00;99.90
22299;DHT22;11317;51.072;17.036;2022-10-16T02:33:00;12.30;99.90
22299;DHT22;11317;51.072;17.036;2022-10-16T02:35:27;11.90;99.90
22299;DHT22;11317;51.072;17.036;2022-10-16T02:37:54;11.50;99.90
22299;DHT22;11317;51.072;17.036;2022-10-16T02:42:52;13.00;99.90
22299;DHT22;11317;51.072;17.036;2022-10-16T02:45:18;11.80;99.90
22299;DHT22;11317;51.072;17.036;2022-10-16T02:47:44;12.10;99.90
22299;DHT22;11317;51.072;17.036;2022-10-16T02:50:09;11.80;99.90
22299;DHT22;11317;51.072;17.036;2022-10-16T02:59:53;11.80;99.90
22299;DHT22;11317;51.072;17.036;2022-10-16T03:02:19;11.70;99.90
22299;DHT22;11317;51.072;17.036;2022-10-16T03:09:36;12.30;99.90
22299;DHT22;11317;51.072;17.036;2022-10-16T03:12:02;11.90;99.90
22299;DHT22;11317;51.072;17.036;2022-10-16T03:14:27;12.10;99.90
22299;DHT22;11317;51.072;17.036;2022-10-16T03:19:19;12.30;99.90
22299;DHT22;11317;51.072;17.036;2022-10-16T03:21:45;12.20;99.90
22299;DHT22;11317;51.072;17.036;2022-10-16T03:24:11;11.90;99.90
22299;DHT22;11317;51.072;17.036;2022-10-16T03:26:36;12.30;99.90
22299;DHT22;11317;51.072;17.036;2022-10-16T03:29:02;12.10;99.90
22299;DHT22;11317;51.072;17.036;2022-10-16T03:31:29;12.00;99.90
22299;DHT22;11317;51.072;17.036;2022-10-16T03:36:20;12.10;99.90
22299;DHT22;11317;51.072;17.036;2022-10-16T03:41:12;12.30;99.90
22299;DHT22;11317;51.072;17.036;2022-10-16T03:43:38;11.80;99.90
22299;DHT22;11317;51.072;17.036;2022-10-16T03:46:04;13.00;99.90
22299;DHT22;11317;51.072;17.036;2022-10-16T03:48:30;12.10;99.90
22299;DHT22;11317;51.072;17.036;2022-10-16T03:50:55;12.50;99.90
22299;DHT22;11317;51.072;17.036;2022-10-16T03:53:21;12.50;99.90
22299;DHT22;11317;51.072;17.036;2022-10-16T03:55:47;13.00;99.90
22299;DHT22;11317;51.072;17.036;2022-10-16T03:58:12;13.10;99.90
22299;DHT22;11317;51.072;17.036;2022-10-16T04:00:42;13.80;99.90
22299;DHT22;11317;51.072;17.036;2022-10-16T04:03:08;13.00;99.90
22299;DHT22;11317;51.072;17.036;2022-10-16T04:05:34;13.30;99.90
22299;DHT22;11317;51.072;17.036;2022-10-16T04:07:59;13.70;99.90
22299;DHT22;11317;51.072;17.036;2022-10-16T04:10:25;13.10;99.90
22299;DHT22;11317;51.072;17.036;2022-10-16T04:15:17;13.20;99.90
22299;DHT22;11317;51.072;17.036;2022-10-16T04:20:08;13.30;99.90
22299;DHT22;11317;51.072;17.036;2022-10-16T04:27:26;13.10;99.90
22299;DHT22;11317;51.072;17.036;2022-10-16T04:32:17;13.30;99.90
22299;DHT22;11317;51.072;17.036;2022-10-16T04:34:43;13.10;99.90
22299;DHT22;11317;51.072;17.036;2022-10-16T04:39:35;12.80;99.90
22299;DHT22;11317;51.072;17.036;2022-10-16T04:44:26;12.70;99.90
22299;DHT22;11317;51.072;17.036;2022-10-16T04:49:18;12.80;99.90
22299;DHT22;11317;51.072;17.036;2022-10-16T04:51:43;12.40;99.90
22299;DHT22;11317;51.072;17.036;2022-10-16T04:56:35;13.00;99.90
22299;DHT22;11317;51.072;17.036;2022-10-16T05:01:34;12.40;99.90
22299;DHT22;11317;51.072;17.036;2022-10-16T05:04:00;12.80;99.90
22299;DHT22;11317;51.072;17.036;2022-10-16T05:06:25;12.80;99.90
22299;DHT22;11317;51.072;17.036;2022-10-16T05:08:51;12.90;99.90
22299;DHT22;11317;51.072;17.036;2022-10-16T05:11:16;12.40;99.90
22299;DHT22;11317;51.072;17.036;2022-10-16T05:13:42;12.50;99.90
22299;DHT22;11317;51.072;17.036;2022-10-16T05:16:07;12.80;99.90
22299;DHT22;11317;51.072;17.036;2022-10-16T05:18:33;12.50;99.90
22299;DHT22;11317;51.072;17.036;2022-10-16T05:20:58;12.80;99.90
22299;DHT22;11317;51.072;17.036;2022-10-16T05:23:24;13.00;99.90
22299;DHT22;11317;51.072;17.036;2022-10-16T05:25:57;12.60;99.90
22299;DHT22;11317;51.072;17.036;2022-10-16T05:28:27;12.80;99.90
22299;DHT22;11317;51.072;17.036;2022-10-16T05:30:53;12.40;99.90
22299;DHT22;11317;51.072;17.036;2022-10-16T05:33:23;12.90;99.90
22299;DHT22;11317;51.072;17.036;2022-10-16T05:35:50;12.70;99.90
22299;DHT22;11317;51.072;17.036;2022-10-16T05:38:16;12.90;99.90
22299;DHT22;11317;51.072;17.036;2022-10-16T05:45:35;13.00;99.90
22299;DHT22;11317;51.072;17.036;2022-10-16T05:48:00;12.90;99.90
22299;DHT22;11317;51.072;17.036;2022-10-16T05:50:27;13.30;99.90
22299;DHT22;11317;51.072;17.036;2022-10-16T05:52:52;12.90;99.90
22299;DHT22;11317;51.072;17.036;2022-10-16T05:55:18;13.00;99.90
22299;DHT22;11317;51.072;17.036;2022-10-16T05:57:43;13.20;99.90
22299;DHT22;11317;51.072;17.036;2022-10-16T06:00:10;13.50;99.90
22299;DHT22;11317;51.072;17.036;2022-10-16T06:02:35;13.60;99.90
22299;DHT22;11317;51.072;17.036;2022-10-16T06:07:27;13.30;99.90
22299;DHT22;11317;51.072;17.036;2022-10-16T06:09:53;13.70;99.90
22299;DHT22;11317;51.072;17.036;2022-10-16T06:12:19;13.30;99.90
22299;DHT22;11317;51.072;17.036;2022-10-16T06:14:45;14.10;99.90
22299;DHT22;11317;51.072;17.036;2022-10-16T06:17:15;13.50;99.90
22299;DHT22;11317;51.072;17.036;2022-10-16T06:19:40;13.50;99.90
22299;DHT22;11317;51.072;17.036;2022-10-16T06:22:06;14.00;99.90
22299;DHT22;11317;51.072;17.036;2022-10-16T06:29:24;14.20;99.90
22299;DHT22;11317;51.072;17.036;2022-10-16T06:31:50;14.40;99.90
22299;DHT22;11317;51.072;17.036;2022-10-16T06:34:15;14.00;99.90
22299;DHT22;11317;51.072;17.036;2022-10-16T06:36:41;13.90;99.90
22299;DHT22;11317;51.072;17.036;2022-10-16T06:39:08;14.50;99.90
22299;DHT22;11317;51.072;17.036;2022-10-16T06:44:00;15.20;99.90
22299;DHT22;11317;51.072;17.036;2022-10-16T06:46:26;15.40;99.90
22299;DHT22;11317;51.072;17.036;2022-10-16T06:48:52;14.80;99.90
22299;DHT22;11317;51.072;17.036;2022-10-16T06:51:20;14.90;99.90
22299;DHT22;11317;51.072;17.036;2022-10-16T06:53:48;15.00;99.90
22299;DHT22;11317;51.072;17.036;2022-10-16T06:56:20;14.90;99.90
22299;DHT22;11317;51.072;17.036;2022-10-16T06:58:46;15.00;99.90
22299;DHT22;11317;51.072;17.036;2022-10-16T07:01:13;14.80;99.90
22299;DHT22;11317;51.072;17.036;2022-10-16T07:03:40;15.10;99.90
22299;DHT22;11317;51.072;17.036;2022-10-16T07:06:07;15.40;99.90
22299;DHT22;11317;51.072;17.036;2022-10-16T07:08:35;15.20;99.90
22299;DHT22;11317;51.072;17.036;2022-10-16T07:11:02;15.20;99.90
22299;DHT22;11317;51.072;17.036;2022-10-16T07:13:28;15.60;99.90
22299;DHT22;11317;51.072;17.036;2022-10-16T07:18:20;15.60;99.90
22299;DHT22;11317;51.072;17.036;2022-10-16T07:20:45;15.40;99.90
22299;DHT22;11317;51.072;17.036;2022-10-16T07:23:11;15.40;99.90
22299;DHT22;11317;51.072;17.036;2022-10-16T07:25:37;15.20;99.90
22299;DHT22;11317;51.072;17.036;2022-10-16T07:28:02;15.60;99.90
22299;DHT22;11317;51.072;17.036;2022-10-16T07:30:29;15.90;99.90
22299;DHT22;11317;51.072;17.036;2022-10-16T07:32:59;16.00;99.90
22299;DHT22;11317;51.072;17.036;2022-10-16T07:37:51;16.00;99.90
22299;DHT22;11317;51.072;17.036;2022-10-16T07:40:16;16.30;85.80
22299;DHT22;11317;51.072;17.036;2022-10-16T07:42:42;16.20;66.50
22299;DHT22;11317;51.072;17.036;2022-10-16T07:47:34;16.60;40.60
22299;DHT22;11317;51.072;17.036;2022-10-16T07:50:00;16.80;30.80
22299;DHT22;11317;51.072;17.036;2022-10-16T07:52:25;17.20;38.80
22299;DHT22;11317;51.072;17.036;2022-10-16T07:54:51;17.30;23.10
22299;DHT22;11317;51.072;17.036;2022-10-16T07:59:45;17.40;1.00
22299;DHT22;11317;51.072;17.036;2022-10-16T08:02:11;17.50;1.00
22299;DHT22;11317;51.072;17.036;2022-10-16T08:07:03;18.10;1.00
22299;DHT22;11317;51.072;17.036;2022-10-16T08:14:21;18.20;1.00
22299;DHT22;11317;51.072;17.036;2022-10-16T08:16:46;18.60;1.00
22299;DHT22;11317;51.072;17.036;2022-10-16T08:19:12;18.80;1.00
22299;DHT22;11317;51.072;17.036;2022-10-16T08:21:37;19.30;1.00
22299;DHT22;11317;51.072;17.036;2022-10-16T08:24:03;20.10;1.00
22299;DHT22;11317;51.072;17.036;2022-10-16T08:26:29;19.20;99.90
22299;DHT22;11317;51.072;17.036;2022-10-16T08:31:21;19.50;99.90
22299;DHT22;11317;51.072;17.036;2022-10-16T08:33:47;19.70;1.00
22299;DHT22;11317;51.072;17.036;2022-10-16T08:36:14;19.90;99.90
22299;DHT22;11317;51.072;17.036;2022-10-16T08:38:40;19.90;1.00
22299;DHT22;11317;51.072;17.036;2022-10-16T08:41:20;19.90;1.00
22299;DHT22;11317;51.072;17.036;2022-10-16T08:49:00;20.60;99.90
22299;DHT22;11317;51.072;17.036;2022-10-16T08:51:31;20.70;1.00
22299;DHT22;11317;51.072;17.036;2022-10-16T08:54:37;20.70;1.00
22299;DHT22;11317;51.072;17.036;2022-10-16T08:57:19;20.70;1.00
22299;DHT22;11317;51.072;17.036;2022-10-16T08:59:45;21.10;1.60
22299;DHT22;11317;51.072;17.036;2022-10-16T09:07:41;21.10;1.00
22299;DHT22;11317;51.072;17.036;2022-10-16T09:12:44;21.60;99.90
22299;DHT22;11317;51.072;17.036;2022-10-16T09:18:15;21.70;1.00
22299;DHT22;11317;51.072;17.036;2022-10-16T09:21:00;21.60;99.90
22299;DHT22;11317;51.072;17.036;2022-10-16T09:23:29;21.90;1.00
22299;DHT22;11317;51.072;17.036;2022-10-16T09:25:57;21.90;1.00
22299;DHT22;11317;51.072;17.036;2022-10-16T09:28:24;22.10;50.00
22299;DHT22;11317;51.072;17.036;2022-10-16T09:33:18;22.30;1.00
22299;DHT22;11317;51.072;17.036;2022-10-16T09:35:50;22.30;1.00
22299;DHT22;11317;51.072;17.036;2022-10-16T09:38:33;22.30;1.00
22299;DHT22;11317;51.072;17.036;2022-10-16T09:41:03;22.00;1.00
22299;DHT22;11317;51.072;17.036;2022-10-16T09:43:40;22.40;1.00
22299;DHT22;11317;51.072;17.036;2022-10-16T09:46:21;23.10;99.90
22299;DHT22;11317;51.072;17.036;2022-10-16T09:48:51;24.40;99.90
22299;DHT22;11317;51.072;17.036;2022-10-16T09:51:28;24.90;99.90
22299;DHT22;11317;51.072;17.036;2022-10-16T09:54:02;25.70;1.00
22299;DHT22;11317;51.072;17.036;2022-10-16T09:56:37;26.70;82.30
22299;DHT22;11317;51.072;17.036;2022-10-16T09:59:16;27.40;99.90
22299;DHT22;11317;51.072;17.036;2022-10-16T10:01:53;27.90;1.00
22299;DHT22;11317;51.072;17.036;2022-10-16T10:04:19;28.90;1.00
22299;DHT22;11317;51.072;17.036;2022-10-16T10:06:48;29.70;1.00
22299;DHT22;11317;51.072;17.036;2022-10-16T10:09:29;31.90;1.00
22299;DHT22;11317;51.072;17.036;2022-10-16T10:19:50;30.40;99.90
22299;DHT22;11317;51.072;17.036;2022-10-16T10:24:44;28.80;99.90
22299;DHT22;11317;51.072;17.036;2022-10-16T10:27:15;28.20;1.00
22299;DHT22;11317;51.072;17.036;2022-10-16T10:35:43;26.90;1.00
22299;DHT22;11317;51.072;17.036;2022-10-16T10:38:47;27.40;76.10
22299;DHT22;11317;51.072;17.036;2022-10-16T10:42:07;28.10;1.00
22299;DHT22;11317;51.072;17.036;2022-10-16T10:50:11;27.50;1.00
22299;DHT22;11317;51.072;17.036;2022-10-16T10:52:53;26.60;1.00
22299;DHT22;11317;51.072;17.036;2022-10-16T11:00:47;25.70;99.90
22299;DHT22;11317;51.072;17.036;2022-10-16T11:09:00;25.50;1.00
22299;DHT22;11317;51.072;17.036;2022-10-16T11:11:40;25.10;99.90
22299;DHT22;11317;51.072;17.036;2022-10-16T11:17:23;24.90;99.90
22299;DHT22;11317;51.072;17.036;2022-10-16T11:22:27;24.60;99.90
22299;DHT22;11317;51.072;17.036;2022-10-16T11:25:11;24.10;1.00
22299;DHT22;11317;51.072;17.036;2022-10-16T11:27:43;24.00;1.00
22299;DHT22;11317;51.072;17.036;2022-10-16T11:30:24;23.90;1.00
22299;DHT22;11317;51.072;17.036;2022-10-16T11:38:34;23.70;1.00
22299;DHT22;11317;51.072;17.036;2022-10-16T11:41:12;24.10;1.00
22299;DHT22;11317;51.072;17.036;2022-10-16T11:43:49;23.80;1.00
22299;DHT22;11317;51.072;17.036;2022-10-16T11:46:20;23.60;99.90
22299;DHT22;11317;51.072;17.036;2022-10-16T11:49:00;23.40;1.00
22299;DHT22;11317;51.072;17.036;2022-10-16T11:51:45;23.40;1.00
22299;DHT22;11317;51.072;17.036;2022-10-16T11:54:41;23.30;1.00
22299;DHT22;11317;51.072;17.036;2022-10-16T11:57:33;23.00;1.00
22299;DHT22;11317;51.072;17.036;2022-10-16T12:00:08;23.10;1.00
22299;DHT22;11317;51.072;17.036;2022-10-16T12:03:44;23.10;1.00
22299;DHT22;11317;51.072;17.036;2022-10-16T12:08:34;23.00;1.00
22299;DHT22;11317;51.072;17.036;2022-10-16T12:11:08;23.00;1.00
22299;DHT22;11317;51.072;17.036;2022-10-16T12:13:39;23.20;1.00
22299;DHT22;11317;51.072;17.036;2022-10-16T12:18:32;22.80;1.00
22299;DHT22;11317;51.072;17.036;2022-10-16T12:20:59;22.60;1.00
22299;DHT22;11317;51.072;17.036;2022-10-16T12:23:31;22.20;1.00
22299;DHT22;11317;51.072;17.036;2022-10-16T12:25:59;22.20;1.00
22299;DHT22;11317;51.072;17.036;2022-10-16T12:28:29;22.20;1.00
22299;DHT22;11317;51.072;17.036;2022-10-16T12:31:06;21.80;1.00
22299;DHT22;11317;51.072;17.036;2022-10-16T12:33:40;21.30;36.90
22299;DHT22;11317;51.072;17.036;2022-10-16T12:36:15;21.60;44.50
22299;DHT22;11317;51.072;17.036;2022-10-16T12:38:51;21.50;71.50
22299;DHT22;11317;51.072;17.036;2022-10-16T12:41:33;21.50;99.90
22299;DHT22;11317;51.072;17.036;2022-10-16T12:44:00;21.50;99.90
22299;DHT22;11317;51.072;17.036;2022-10-16T12:51:42;21.20;99.90
22299;DHT22;11317;51.072;17.036;2022-10-16T12:54:20;21.20;99.90
22299;DHT22;11317;51.072;17.036;2022-10-16T12:57:09;21.20;99.90
22299;DHT22;11317;51.072;17.036;2022-10-16T13:08:22;21.90;99.90
22299;DHT22;11317;51.072;17.036;2022-10-16T13:13:38;21.90;99.90
22299;DHT22;11317;51.072;17.036;2022-10-16T13:28:49;21.30;99.90
22299;DHT22;11317;51.072;17.036;2022-10-16T13:31:19;21.50;99.90
22299;DHT22;11317;51.072;17.036;2022-10-16T13:33:48;21.50;99.90
22299;DHT22;11317;51.072;17.036;2022-10-16T13:36:20;21.60;99.90
22299;DHT22;11317;51.072;17.036;2022-10-16T13:38:46;22.00;99.90
22299;DHT22;11317;51.072;17.036;2022-10-16T13:41:17;21.60;99.90
22299;DHT22;11317;51.072;17.036;2022-10-16T13:43:49;21.50;99.90
22299;DHT22;11317;51.072;17.036;2022-10-16T13:46:18;21.50;99.90
22299;DHT22;11317;51.072;17.036;2022-10-16T13:48:55;21.80;99.90
22299;DHT22;11317;51.072;17.036;2022-10-16T13:51:22;21.70;99.90
22299;DHT22;11317;51.072;17.036;2022-10-16T13:53:52;21.70;99.90
22299;DHT22;11317;51.072;17.036;2022-10-16T13:56:20;21.70;99.90
22299;DHT22;11317;51.072;17.036;2022-10-16T13:59:01;21.90;99.90
22299;DHT22;11317;51.072;17.036;2022-10-16T14:01:47;22.00;99.90
22299;DHT22;11317;51.072;17.036;2022-10-16T14:04:13;21.80;99.90
22299;DHT22;11317;51.072;17.036;2022-10-16T14:06:48;22.10;42.90
22299;DHT22;11317;51.072;17.036;2022-10-16T14:09:27;22.10;7.00
22299;DHT22;11317;51.072;17.036;2022-10-16T14:11:57;22.00;1.00
22299;DHT22;11317;51.072;17.036;2022-10-16T14:14:24;21.80;53.80
22299;DHT22;11317;51.072;17.036;2022-10-16T14:16:51;21.20;20.10
22299;DHT22;11317;51.072;17.036;2022-10-16T14:19:26;21.90;26.20
22299;DHT22;11317;51.072;17.036;2022-10-16T14:21:53;22.30;99.90
22299;DHT22;11317;51.072;17.036;2022-10-16T14:24:27;21.80;1.00
22299;DHT22;11317;51.072;17.036;2022-10-16T14:26:57;21.90;99.90
22299;DHT22;11317;51.072;17.036;2022-10-16T14:29:23;21.60;87.90
22299;DHT22;11317;51.072;17.036;2022-10-16T14:32:02;21.70;1.00
22299;DHT22;11317;51.072;17.036;2022-10-16T14:34:32;21.30;99.90
22299;DHT22;11317;51.072;17.036;2022-10-16T14:37:09;21.60;1.00
22299;DHT22;11317;51.072;17.036;2022-10-16T14:39:39;21.70;99.90
22299;DHT22;11317;51.072;17.036;2022-10-16T14:42:14;21.60;1.00
22299;DHT22;11317;51.072;17.036;2022-10-16T14:44:42;21.40;94.90
22299;DHT22;11317;51.072;17.036;2022-10-16T14:47:13;21.50;99.90
22299;DHT22;11317;51.072;17.036;2022-10-16T14:49:41;20.90;99.90
22299;DHT22;11317;51.072;17.036;2022-10-16T14:52:11;21.40;99.90
22299;DHT22;11317;51.072;17.036;2022-10-16T14:54:37;21.10;99.90
22299;DHT22;11317;51.072;17.036;2022-10-16T14:57:03;20.90;99.90
22299;DHT22;11317;51.072;17.036;2022-10-16T14:59:47;21.10;99.90
22299;DHT22;11317;51.072;17.036;2022-10-16T15:02:33;21.10;99.90
22299;DHT22;11317;51.072;17.036;2022-10-16T15:07:40;20.90;99.90
22299;DHT22;11317;51.072;17.036;2022-10-16T15:10:07;21.10;99.90
22299;DHT22;11317;51.072;17.036;2022-10-16T15:12:33;21.10;1.00
22299;DHT22;11317;51.072;17.036;2022-10-16T15:14:58;21.10;1.00
22299;DHT22;11317;51.072;17.036;2022-10-16T15:17:24;20.90;1.00
22299;DHT22;11317;51.072;17.036;2022-10-16T15:19:50;20.80;1.00
22299;DHT22;11317;51.072;17.036;2022-10-16T15:22:16;20.30;1.00
22299;DHT22;11317;51.072;17.036;2022-10-16T15:24:42;21.40;1.00
22299;DHT22;11317;51.072;17.036;2022-10-16T15:27:08;20.80;1.00
22299;DHT22;11317;51.072;17.036;2022-10-16T15:29:34;20.50;1.00
22299;DHT22;11317;51.072;17.036;2022-10-16T15:31:59;20.20;1.00
22299;DHT22;11317;51.072;17.036;2022-10-16T15:34:25;20.10;99.90
22299;DHT22;11317;51.072;17.036;2022-10-16T15:36:50;20.30;99.90
22299;DHT22;11317;51.072;17.036;2022-10-16T15:39:18;20.20;1.00
22299;DHT22;11317;51.072;17.036;2022-10-16T15:41:46;20.10;1.00
22299;DHT22;11317;51.072;17.036;2022-10-16T15:44:16;20.40;99.90
22299;DHT22;11317;51.072;17.036;2022-10-16T15:49:08;19.60;99.90
22299;DHT22;11317;51.072;17.036;2022-10-16T15:51:38;19.60;1.00
22299;DHT22;11317;51.072;17.036;2022-10-16T15:54:04;19.60;1.00
22299;DHT22;11317;51.072;17.036;2022-10-16T15:56:30;19.60;96.80
22299;DHT22;11317;51.072;17.036;2022-10-16T16:01:24;19.00;1.00
22299;DHT22;11317;51.072;17.036;2022-10-16T16:03:53;19.00;99.90
22299;DHT22;11317;51.072;17.036;2022-10-16T16:06:19;19.10;99.90
22299;DHT22;11317;51.072;17.036;2022-10-16T16:08:44;18.90;28.10
22299;DHT22;11317;51.072;17.036;2022-10-16T16:11:17;18.80;94.90
22299;DHT22;11317;51.072;17.036;2022-10-16T16:16:14;18.70;1.00
22299;DHT22;11317;51.072;17.036;2022-10-16T16:18:39;19.50;1.00
22299;DHT22;11317;51.072;17.036;2022-10-16T16:21:06;18.70;1.00
22299;DHT22;11317;51.072;17.036;2022-10-16T16:23:31;19.00;1.00
22299;DHT22;11317;51.072;17.036;2022-10-16T16:26:15;18.40;1.00
22299;DHT22;11317;51.072;17.036;2022-10-16T16:28:42;18.50;99.90
22299;DHT22;11317;51.072;17.036;2022-10-16T16:31:08;18.60;1.00
22299;DHT22;11317;51.072;17.036;2022-10-16T16:33:34;18.30;90.60
22299;DHT22;11317;51.072;17.036;2022-10-16T16:36:02;18.40;99.90
22299;DHT22;11317;51.072;17.036;2022-10-16T16:38:28;18.50;99.90
22299;DHT22;11317;51.072;17.036;2022-10-16T16:43:27;18.20;99.90
22299;DHT22;11317;51.072;17.036;2022-10-16T16:45:53;18.20;1.00
22299;DHT22;11317;51.072;17.036;2022-10-16T16:48:20;18.10;1.00
22299;DHT22;11317;51.072;17.036;2022-10-16T16:55:38;17.80;1.00
22299;DHT22;11317;51.072;17.036;2022-10-16T17:02:57;17.90;1.00
22299;DHT22;11317;51.072;17.036;2022-10-16T17:10:15;17.90;1.00
22299;DHT22;11317;51.072;17.036;2022-10-16T17:12:41;18.40;1.00
22299;DHT22;11317;51.072;17.036;2022-10-16T17:15:07;17.50;1.00
22299;DHT22;11317;51.072;17.036;2022-10-16T17:17:33;18.00;1.00
22299;DHT22;11317;51.072;17.036;2022-10-16T17:19:58;17.70;1.00
22299;DHT22;11317;51.072;17.036;2022-10-16T17:27:18;17.80;1.00
22299;DHT22;11317;51.072;17.036;2022-10-16T17:29:44;17.40;1.00
22299;DHT22;11317;51.072;17.036;2022-10-16T17:32:10;17.20;1.00
22299;DHT22;11317;51.072;17.036;2022-10-16T17:34:36;17.00;1.00
22299;DHT22;11317;51.072;17.036;2022-10-16T17:37:02;17.80;1.00
22299;DHT22;11317;51.072;17.036;2022-10-16T17:39:28;16.90;1.00
22299;DHT22;11317;51.072;17.036;2022-10-16T17:41:53;18.20;1.00
22299;DHT22;11317;51.072;17.036;2022-10-16T17:46:47;17.50;1.00
22299;DHT22;11317;51.072;17.036;2022-10-16T17:51:42;17.40;1.40
22299;DHT22;11317;51.072;17.036;2022-10-16T17:54:10;16.70;11.60
22299;DHT22;11317;51.072;17.036;2022-10-16T17:56:39;17.10;18.70
22299;DHT22;11317;51.072;17.036;2022-10-16T17:59:06;17.00;26.90
22299;DHT22;11317;51.072;17.036;2022-10-16T18:01:37;16.80;31.50
22299;DHT22;11317;51.072;17.036;2022-10-16T18:04:07;16.60;31.20
22299;DHT22;11317;51.072;17.036;2022-10-16T18:06:35;16.90;40.30
22299;DHT22;11317;51.072;17.036;2022-10-16T18:09:01;16.60;39.00
22299;DHT22;11317;51.072;17.036;2022-10-16T18:11:28;16.80;52.00
22299;DHT22;11317;51.072;17.036;2022-10-16T18:13:57;16.80;50.80
22299;DHT22;11317;51.072;17.036;2022-10-16T18:16:23;16.40;66.90
22299;DHT22;11317;51.072;17.036;2022-10-16T18:18:50;16.40;67.90
22299;DHT22;11317;51.072;17.036;2022-10-16T18:21:17;17.40;78.20
22299;DHT22;11317;51.072;17.036;2022-10-16T18:26:11;16.80;86.40
22299;DHT22;11317;51.072;17.036;2022-10-16T18:28:37;16.70;82.40
22299;DHT22;11317;51.072;17.036;2022-10-16T18:31:05;16.70;73.30
22299;DHT22;11317;51.072;17.036;2022-10-16T18:33:32;16.40;80.30
22299;DHT22;11317;51.072;17.036;2022-10-16T18:36:06;16.60;72.10
22299;DHT22;11317;51.072;17.036;2022-10-16T18:38:33;17.10;86.60
22299;DHT22;11317;51.072;17.036;2022-10-16T18:41:01;16.70;67.90
22299;DHT22;11317;51.072;17.036;2022-10-16T18:43:27;16.70;76.30
22299;DHT22;11317;51.072;17.036;2022-10-16T18:45:57;16.80;63.00
22299;DHT22;11317;51.072;17.036;2022-10-16T18:48:24;16.80;51.60
22299;DHT22;11317;51.072;17.036;2022-10-16T18:50:50;16.70;63.50
22299;DHT22;11317;51.072;17.036;2022-10-16T18:58:08;16.50;68.80
22299;DHT22;11317;51.072;17.036;2022-10-16T19:00:34;16.70;82.70
22299;DHT22;11317;51.072;17.036;2022-10-16T19:03:00;16.70;62.60
22299;DHT22;11317;51.072;17.036;2022-10-16T19:10:17;16.50;65.30
22299;DHT22;11317;51.072;17.036;2022-10-16T19:15:09;16.60;66.00
22299;DHT22;11317;51.072;17.036;2022-10-16T19:17:35;16.40;66.90
22299;DHT22;11317;51.072;17.036;2022-10-16T19:20:05;16.50;88.40
22299;DHT22;11317;51.072;17.036;2022-10-16T19:22:31;16.50;86.20
22299;DHT22;11317;51.072;17.036;2022-10-16T19:25:16;16.50;88.70
22299;DHT22;11317;51.072;17.036;2022-10-16T19:27:42;16.30;90.70
22299;DHT22;11317;51.072;17.036;2022-10-16T19:30:08;16.30;88.40
22299;DHT22;11317;51.072;17.036;2022-10-16T19:32:34;16.40;90.30
22299;DHT22;11317;51.072;17.036;2022-10-16T19:34:59;16.20;93.50
22299;DHT22;11317;51.072;17.036;2022-10-16T19:37:26;16.40;96.70
22299;DHT22;11317;51.072;17.036;2022-10-16T19:39:52;16.10;97.20
22299;DHT22;11317;51.072;17.036;2022-10-16T19:44:44;15.80;94.70
22299;DHT22;11317;51.072;17.036;2022-10-16T19:47:10;16.50;99.40
22299;DHT22;11317;51.072;17.036;2022-10-16T19:49:35;15.80;97.70
22299;DHT22;11317;51.072;17.036;2022-10-16T19:54:27;15.90;82.00